sensor_id;sensor_type;location;lat;lon;timestamp;pressure;altitude;pressure_sealevel;temperature;humidity
46638;BME280;32365;46.938;7.390;2022-10-16T05:27:36;95393.59;;;11.02;100.00
46638;BME280;32365;46.938;7.390;2022-10-16T05:30:03;95383.38;;;10.96;100.00
46638;BME280;32365;46.938;7.390;2022-10-16T05:32:30;95390.31;;;11.07;100.00
46638;BME280;32365;46.938;7.390;2022-10-16T05:34:56;95380.13;;;11.00;100.00
46638;BME280;32365;46.938;7.390;2022-10-16T05:37:24;95376.97;;;10.98;100.00
46638;BME280;32365;46.938;7.390;2022-10-16T05:39:50;95374.94;;;11.00;100.00
46638;BME280;32365;46.938;7.390;2022-10-16T05:42:17;95380.00;;;10.95;100.00
46638;BME280;32365;46.938;7.390;2022-10-16T05:44:45;95380.31;;;10.99;100.00
46638;BME280;32365;46.938;7.390;2022-10-16T05:47:12;95379.44;;;10.93;100.00
46638;BME280;32365;46.938;7.390;2022-10-16T05:49:39;95390.59;;;10.93;100.00
46638;BME280;32365;46.938;7.390;2022-10-16T05:52:05;95390.38;;;10.95;100.00
46638;BME280;32365;46.938;7.390;2022-10-16T05:54:32;95391.50;;;10.99;100.00
46638;BME280;32365;46.938;7.390;2022-10-16T05:56:58;95394.72;;;11.06;100.00
46638;BME280;32365;46.938;7.390;2022-10-16T05:59:25;95395.28;;;11.08;100.00
46638;BME280;32365;46.938;7.390;2022-10-16T06:01:53;95399.78;;;11.13;100.00
46638;BME280;32365;46.938;7.390;2022-10-16T06:04:19;95398.44;;;11.11;100.00
46638;BME280;32365;46.938;7.390;2022-10-16T06:06:46;95401.09;;;11.16;100.00
46638;BME280;32365;46.938;7.390;2022-10-16T06:09:12;95407.09;;;11.16;100.00
46638;BME280;32365;46.938;7.390;2022-10-16T06:11:38;95407.44;;;11.08;100.00
46638;BME280;32365;46.938;7.390;2022-10-16T06:14:05;95409.91;;;11.15;100.00
46638;BME280;32365;46.938;7.390;2022-10-16T06:16:33;95409.44;;;11.18;100.00
46638;BME280;32365;46.938;7.390;2022-10-16T06:19:01;95414.75;;;11.23;100.00
46638;BME280;32365;46.938;7.390;2022-10-16T06:21:31;95416.31;;;11.24;100.00
46638;BME280;32365;46.938;7.390;2022-10-16T06:23:57;95420.25;;;11.27;100.00
46638;BME280;32365;46.938;7.390;2022-10-16T06:26:25;95425.50;;;11.32;100.00
46638;BME280;32365;46.938;7.390;2022-10-16T06:28:53;95423.59;;;11.39;100.00
46638;BME280;32365;46.938;7.390;2022-10-16T06:31:20;95427.06;;;11.45;100.00
46638;BME280;32365;46.938;7.390;2022-10-16T06:33:49;95419.91;;;11.52;100.00
46638;BME280;32365;46.938;7.390;2022-10-16T06:36:17;95423.06;;;11.54;100.00
46638;BME280;32365;46.938;7.390;2022-10-16T06:38:44;95417.50;;;11.62;100.00
46638;BME280;32365;46.938;7.390;2022-10-16T06:41:11;95422.03;;;11.84;100.00
46638;BME280;32365;46.938;7.390;2022-10-16T06:43:38;95426.97;;;11.85;99.21
46638;BME280;32365;46.938;7.390;2022-10-16T06:46:05;95435.16;;;11.94;99.01
46638;BME280;32365;46.938;7.390;2022-10-16T06:48:32;95432.31;;;11.96;98.67
46638;BME280;32365;46.938;7.390;2022-10-16T06:51:00;95439.88;;;11.97;98.81
46638;BME280;32365;46.938;7.390;2022-10-16T06:53:29;95450.50;;;11.96;98.57
46638;BME280;32365;46.938;7.390;2022-10-16T06:55:56;95450.13;;;12.04;99.21
46638;BME280;32365;46.938;7.390;2022-10-16T06:58:23;95452.91;;;12.14;98.60
46638;BME280;32365;46.938;7.390;2022-10-16T07:00:54;95453.13;;;12.13;97.76
46638;BME280;32365;46.938;7.390;2022-10-16T07:03:21;95467.84;;;12.24;97.01
46638;BME280;32365;46.938;7.390;2022-10-16T07:05:48;95463.44;;;12.42;96.59
46638;BME280;32365;46.938;7.390;2022-10-16T07:08:14;95466.41;;;12.34;96.88
46638;BME280;32365;46.938;7.390;2022-10-16T07:10:42;95474.84;;;12.41;96.80
46638;BME280;32365;46.938;7.390;2022-10-16T07:13:08;95471.69;;;12.56;94.78
46638;BME280;32365;46.938;7.390;2022-10-16T07:15:38;95473.03;;;12.58;95.35
46638;BME280;32365;46.938;7.390;2022-10-16T07:18:04;95481.03;;;12.74;94.54
46638;BME280;32365;46.938;7.390;2022-10-16T07:20:31;95477.00;;;12.83;93.33
46638;BME280;32365;46.938;7.390;2022-10-16T07:22:57;95483.94;;;12.77;94.54
46638;BME280;32365;46.938;7.390;2022-10-16T07:25:24;95485.75;;;12.94;94.31
46638;BME280;32365;46.938;7.390;2022-10-16T07:27:51;95489.50;;;13.03;93.29
46638;BME280;32365;46.938;7.390;2022-10-16T07:30:21;95499.00;;;13.15;91.72
46638;BME280;32365;46.938;7.390;2022-10-16T07:32:48;95493.13;;;13.02;92.35
46638;BME280;32365;46.938;7.390;2022-10-16T07:35:14;95495.91;;;13.18;92.53
46638;BME280;32365;46.938;7.390;2022-10-16T07:37:43;95499.25;;;13.13;92.65
46638;BME280;32365;46.938;7.390;2022-10-16T07:40:10;95513.66;;;13.21;92.31
46638;BME280;32365;46.938;7.390;2022-10-16T07:42:37;95514.88;;;12.96;92.34
46638;BME280;32365;46.938;7.390;2022-10-16T07:45:06;95512.03;;;12.98;93.70
46638;BME280;32365;46.938;7.390;2022-10-16T07:47:32;95503.84;;;13.28;91.98
46638;BME280;32365;46.938;7.390;2022-10-16T07:49:59;95511.31;;;13.42;90.65
46638;BME280;32365;46.938;7.390;2022-10-16T07:52:25;95508.66;;;13.19;92.00
46638;BME280;32365;46.938;7.390;2022-10-16T07:54:52;95517.91;;;13.10;92.61
46638;BME280;32365;46.938;7.390;2022-10-16T07:57:18;95525.97;;;13.08;92.64
46638;BME280;32365;46.938;7.390;2022-10-16T07:59:45;95534.56;;;12.92;93.28
46638;BME280;32365;46.938;7.390;2022-10-16T08:02:13;95529.75;;;13.01;93.54
46638;BME280;32365;46.938;7.390;2022-10-16T08:04:39;95525.31;;;13.01;92.76
46638;BME280;32365;46.938;7.390;2022-10-16T08:07:06;95531.56;;;12.83;92.81
46638;BME280;32365;46.938;7.390;2022-10-16T08:09:33;95532.75;;;12.58;94.81
46638;BME280;32365;46.938;7.390;2022-10-16T08:11:59;95531.72;;;12.42;96.02
46638;BME280;32365;46.938;7.390;2022-10-16T08:14:25;95542.25;;;12.36;96.96
46638;BME280;32365;46.938;7.390;2022-10-16T08:16:52;95544.84;;;12.36;96.77
46638;BME280;32365;46.938;7.390;2022-10-16T08:19:20;95550.59;;;12.21;97.88
46638;BME280;32365;46.938;7.390;2022-10-16T08:21:46;95541.47;;;12.18;98.98
46638;BME280;32365;46.938;7.390;2022-10-16T08:24:13;95554.44;;;12.18;98.75
46638;BME280;32365;46.938;7.390;2022-10-16T08:26:39;95544.53;;;12.15;98.73
46638;BME280;32365;46.938;7.390;2022-10-16T08:29:06;95552.53;;;12.13;99.07
46638;BME280;32365;46.938;7.390;2022-10-16T08:31:32;95550.22;;;12.46;98.15
46638;BME280;32365;46.938;7.390;2022-10-16T08:33:59;95553.88;;;13.18;96.58
46638;BME280;32365;46.938;7.390;2022-10-16T08:36:27;95552.13;;;13.85;90.70
46638;BME280;32365;46.938;7.390;2022-10-16T08:38:54;95552.13;;;14.40;87.74
46638;BME280;32365;46.938;7.390;2022-10-16T08:41:28;95557.13;;;15.12;83.20
46638;BME280;32365;46.938;7.390;2022-10-16T08:44:02;95562.06;;;15.08;82.65
46638;BME280;32365;46.938;7.390;2022-10-16T08:46:35;95559.19;;;15.58;83.33
46638;BME280;32365;46.938;7.390;2022-10-16T08:49:03;95557.59;;;16.52;78.83
46638;BME280;32365;46.938;7.390;2022-10-16T08:51:31;95565.97;;;16.85;77.13
46638;BME280;32365;46.938;7.390;2022-10-16T08:53:59;95563.91;;;17.07;76.69
46638;BME280;32365;46.938;7.390;2022-10-16T08:56:27;95571.41;;;18.16;68.64
46638;BME280;32365;46.938;7.390;2022-10-16T08:58:54;95577.25;;;20.09;61.68
46638;BME280;32365;46.938;7.390;2022-10-16T09:01:21;95557.44;;;18.95;66.15
46638;BME280;32365;46.938;7.390;2022-10-16T09:06:41;95552.69;;;19.27;61.58
46638;BME280;32365;46.938;7.390;2022-10-16T09:11:55;95560.13;;;18.85;64.12
46638;BME280;32365;46.938;7.390;2022-10-16T09:14:32;95554.38;;;18.83;62.38
46638;BME280;32365;46.938;7.390;2022-10-16T09:17:04;95557.75;;;18.88;64.58
46638;BME280;32365;46.938;7.390;2022-10-16T09:19:35;95561.91;;;19.00;65.68
46638;BME280;32365;46.938;7.390;2022-10-16T09:22:09;95560.06;;;19.25;64.95
46638;BME280;32365;46.938;7.390;2022-10-16T09:24:37;95567.22;;;19.43;62.92
46638;BME280;32365;46.938;7.390;2022-10-16T09:27:03;95566.44;;;20.10;59.46
46638;BME280;32365;46.938;7.390;2022-10-16T09:29:30;95575.91;;;20.30;57.19
46638;BME280;32365;46.938;7.390;2022-10-16T09:31:56;95579.91;;;20.80;58.26
46638;BME280;32365;46.938;7.390;2022-10-16T09:34:34;95572.59;;;21.38;56.59
46638;BME280;32365;46.938;7.390;2022-10-16T09:37:03;95577.44;;;21.64;51.91
46638;BME280;32365;46.938;7.390;2022-10-16T09:39:41;95574.59;;;21.88;51.58
46638;BME280;32365;46.938;7.390;2022-10-16T09:42:10;95575.66;;;23.38;48.01
46638;BME280;32365;46.938;7.390;2022-10-16T09:44:36;95581.63;;;24.10;44.85
46638;BME280;32365;46.938;7.390;2022-10-16T09:47:04;95573.91;;;21.41;52.74
46638;BME280;32365;46.938;7.390;2022-10-16T09:49:31;95587.31;;;20.21;56.16
46638;BME280;32365;46.938;7.390;2022-10-16T09:52:03;95592.13;;;21.37;51.46
46638;BME280;32365;46.938;7.390;2022-10-16T09:54:31;95591.72;;;21.44;51.86
46638;BME280;32365;46.938;7.390;2022-10-16T09:57:04;95592.53;;;22.00;53.06
46638;BME280;32365;46.938;7.390;2022-10-16T09:59:31;95589.47;;;23.75;44.47
46638;BME280;32365;46.938;7.390;2022-10-16T10:02:00;95593.19;;;23.74;45.59
46638;BME280;32365;46.938;7.390;2022-10-16T10:04:36;95594.25;;;23.64;45.54
46638;BME280;32365;46.938;7.390;2022-10-16T10:07:03;95588.09;;;25.09;43.01
46638;BME280;32365;46.938;7.390;2022-10-16T10:09:31;95586.41;;;25.04;43.77
46638;BME280;32365;46.938;7.390;2022-10-16T10:12:00;95589.81;;;27.68;38.31
46638;BME280;32365;46.938;7.390;2022-10-16T10:14:30;95590.66;;;29.07;33.95
46638;BME280;32365;46.938;7.390;2022-10-16T10:17:06;95586.00;;;31.18;30.73
46638;BME280;32365;46.938;7.390;2022-10-16T10:19:37;95592.69;;;29.42;33.00
46638;BME280;32365;46.938;7.390;2022-10-16T10:22:11;95600.28;;;27.27;37.30
46638;BME280;32365;46.938;7.390;2022-10-16T10:24:40;95595.41;;;28.29;36.06
46638;BME280;32365;46.938;7.390;2022-10-16T10:27:08;95593.94;;;27.19;38.86
46638;BME280;32365;46.938;7.390;2022-10-16T10:29:41;95587.56;;;27.95;36.11
46638;BME280;32365;46.938;7.390;2022-10-16T10:32:14;95590.50;;;27.77;36.26
46638;BME280;32365;46.938;7.390;2022-10-16T10:34:50;95580.59;;;28.15;35.12
46638;BME280;32365;46.938;7.390;2022-10-16T10:37:24;95585.00;;;28.93;35.17
46638;BME280;32365;46.938;7.390;2022-10-16T10:39:56;95579.88;;;30.35;31.31
46638;BME280;32365;46.938;7.390;2022-10-16T10:42:25;95575.84;;;28.08;34.65
46638;BME280;32365;46.938;7.390;2022-10-16T10:44:56;95569.41;;;29.39;32.32
46638;BME280;32365;46.938;7.390;2022-10-16T10:47:32;95565.88;;;30.03;31.30
46638;BME280;32365;46.938;7.390;2022-10-16T10:50:07;95565.34;;;28.28;35.04
46638;BME280;32365;46.938;7.390;2022-10-16T10:52:41;95566.47;;;28.27;35.42
46638;BME280;32365;46.938;7.390;2022-10-16T10:55:13;95561.34;;;28.63;35.46
46638;BME280;32365;46.938;7.390;2022-10-16T10:57:43;95556.03;;;29.07;32.71
46638;BME280;32365;46.938;7.390;2022-10-16T11:00:14;95556.97;;;28.70;33.49
46638;BME280;32365;46.938;7.390;2022-10-16T11:02:48;95559.88;;;28.37;34.70
46638;BME280;32365;46.938;7.390;2022-10-16T11:05:23;95560.44;;;29.15;33.48
46638;BME280;32365;46.938;7.390;2022-10-16T11:07:55;95554.09;;;30.63;29.56
46638;BME280;32365;46.938;7.390;2022-10-16T11:10:25;95552.91;;;29.05;32.88
46638;BME280;32365;46.938;7.390;2022-10-16T11:12:55;95553.03;;;31.60;27.90
46638;BME280;32365;46.938;7.390;2022-10-16T11:15:25;95550.41;;;30.12;30.33
46638;BME280;32365;46.938;7.390;2022-10-16T11:17:53;95556.50;;;28.81;36.85
46638;BME280;32365;46.938;7.390;2022-10-16T11:20:23;95554.13;;;29.56;33.72
46638;BME280;32365;46.938;7.390;2022-10-16T11:22:51;95543.66;;;31.20;29.05
46638;BME280;32365;46.938;7.390;2022-10-16T11:25:20;95539.06;;;29.63;32.38
46638;BME280;32365;46.938;7.390;2022-10-16T11:27:50;95540.13;;;29.11;32.88
46638;BME280;32365;46.938;7.390;2022-10-16T11:30:21;95543.53;;;30.50;32.47
46638;BME280;32365;46.938;7.390;2022-10-16T11:32:58;95540.25;;;31.00;30.29
46638;BME280;32365;46.938;7.390;2022-10-16T11:35:32;95541.84;;;29.51;33.40
46638;BME280;32365;46.938;7.390;2022-10-16T11:38:03;95547.50;;;28.85;35.20
46638;BME280;32365;46.938;7.390;2022-10-16T11:40:33;95546.78;;;29.85;31.80
46638;BME280;32365;46.938;7.390;2022-10-16T11:43:10;95537.66;;;31.07;29.30
46638;BME280;32365;46.938;7.390;2022-10-16T11:45:39;95533.53;;;29.53;32.04
46638;BME280;32365;46.938;7.390;2022-10-16T11:48:10;95535.50;;;30.90;29.13
46638;BME280;32365;46.938;7.390;2022-10-16T11:50:42;95530.25;;;30.54;30.25
46638;BME280;32365;46.938;7.390;2022-10-16T11:53:12;95527.47;;;31.13;28.52
46638;BME280;32365;46.938;7.390;2022-10-16T11:55:41;95528.25;;;28.92;32.87
46638;BME280;32365;46.938;7.390;2022-10-16T11:58:12;95526.75;;;30.30;29.86
46638;BME280;32365;46.938;7.390;2022-10-16T12:00:41;95517.75;;;30.58;29.50
46638;BME280;32365;46.938;7.390;2022-10-16T12:03:12;95528.09;;;29.85;30.12
46638;BME280;32365;46.938;7.390;2022-10-16T12:05:49;95531.66;;;29.73;29.74
46638;BME280;32365;46.938;7.390;2022-10-16T12:08:18;95524.56;;;29.45;32.69
46638;BME280;32365;46.938;7.390;2022-10-16T12:10:46;95520.91;;;29.69;31.88
46638;BME280;32365;46.938;7.390;2022-10-16T12:16:19;95515.59;;;28.16;34.69
46638;BME280;32365;46.938;7.390;2022-10-16T12:18:46;95518.78;;;28.95;34.27
46638;BME280;32365;46.938;7.390;2022-10-16T12:21:14;95518.81;;;28.66;34.14
46638;BME280;32365;46.938;7.390;2022-10-16T12:23:46;95514.25;;;28.22;33.32
46638;BME280;32365;46.938;7.390;2022-10-16T12:26:13;95518.28;;;28.61;33.43
46638;BME280;32365;46.938;7.390;2022-10-16T12:28:40;95505.47;;;28.95;35.31
46638;BME280;32365;46.938;7.390;2022-10-16T12:31:07;95508.00;;;30.27;31.72
46638;BME280;32365;46.938;7.390;2022-10-16T12:33:36;95509.19;;;30.09;30.74
46638;BME280;32365;46.938;7.390;2022-10-16T12:36:04;95500.56;;;29.13;32.16
46638;BME280;32365;46.938;7.390;2022-10-16T12:38:35;95504.66;;;30.73;29.88
46638;BME280;32365;46.938;7.390;2022-10-16T12:41:03;95508.41;;;31.41;29.42
46638;BME280;32365;46.938;7.390;2022-10-16T12:43:40;95505.53;;;30.80;30.94
46638;BME280;32365;46.938;7.390;2022-10-16T12:46:22;95507.78;;;30.55;30.39
46638;BME280;32365;46.938;7.390;2022-10-16T12:48:50;95504.03;;;29.13;33.57
46638;BME280;32365;46.938;7.390;2022-10-16T12:51:21;95504.78;;;30.17;31.31
46638;BME280;32365;46.938;7.390;2022-10-16T12:53:57;95506.09;;;30.27;30.69
46638;BME280;32365;46.938;7.390;2022-10-16T12:56:26;95504.09;;;29.33;32.42
46638;BME280;32365;46.938;7.390;2022-10-16T12:59:01;95504.09;;;28.85;32.27
46638;BME280;32365;46.938;7.390;2022-10-16T13:01:34;95503.06;;;30.29;31.23
46638;BME280;32365;46.938;7.390;2022-10-16T13:06:50;95503.19;;;28.65;35.03
46638;BME280;32365;46.938;7.390;2022-10-16T13:09:31;95501.22;;;29.93;32.38
46638;BME280;32365;46.938;7.390;2022-10-16T13:14:57;95503.13;;;29.57;31.79
46638;BME280;32365;46.938;7.390;2022-10-16T13:17:30;95507.94;;;30.23;30.18
46638;BME280;32365;46.938;7.390;2022-10-16T13:20:04;95506.16;;;29.24;32.52
46638;BME280;32365;46.938;7.390;2022-10-16T13:22:35;95509.84;;;28.42;35.77
46638;BME280;32365;46.938;7.390;2022-10-16T13:25:13;95506.25;;;28.22;36.21
46638;BME280;32365;46.938;7.390;2022-10-16T13:27:44;95513.38;;;27.28;38.18
46638;BME280;32365;46.938;7.390;2022-10-16T13:30:13;95506.28;;;28.10;37.98
46638;BME280;32365;46.938;7.390;2022-10-16T13:32:44;95502.94;;;27.72;37.93
46638;BME280;32365;46.938;7.390;2022-10-16T13:35:21;95501.53;;;28.03;36.93
46638;BME280;32365;46.938;7.390;2022-10-16T13:37:49;95499.06;;;26.62;39.00
46638;BME280;32365;46.938;7.390;2022-10-16T13:40:20;95499.72;;;26.58;41.04
46638;BME280;32365;46.938;7.390;2022-10-16T13:42:47;95490.22;;;26.24;40.67
46638;BME280;32365;46.938;7.390;2022-10-16T13:45:17;95499.47;;;25.75;42.57
46638;BME280;32365;46.938;7.390;2022-10-16T13:47:44;95497.38;;;25.60;43.01
46638;BME280;32365;46.938;7.390;2022-10-16T13:50:12;95493.06;;;25.46;43.80
46638;BME280;32365;46.938;7.390;2022-10-16T13:52:39;95500.72;;;26.87;39.53
46638;BME280;32365;46.938;7.390;2022-10-16T13:55:11;95505.81;;;26.59;41.42
46638;BME280;32365;46.938;7.390;2022-10-16T13:57:38;95507.88;;;25.47;44.82
46638;BME280;32365;46.938;7.390;2022-10-16T14:00:16;95510.88;;;25.37;44.74
46638;BME280;32365;46.938;7.390;2022-10-16T14:02:43;95510.19;;;25.19;43.64
46638;BME280;32365;46.938;7.390;2022-10-16T14:05:10;95511.69;;;25.29;45.04
46638;BME280;32365;46.938;7.390;2022-10-16T14:07:38;95509.22;;;24.85;44.90
46638;BME280;32365;46.938;7.390;2022-10-16T14:10:06;95509.41;;;25.18;42.41
46638;BME280;32365;46.938;7.390;2022-10-16T14:12:34;95508.97;;;24.34;46.78
46638;BME280;32365;46.938;7.390;2022-10-16T14:15:01;95512.56;;;24.20;49.28
46638;BME280;32365;46.938;7.390;2022-10-16T14:17:28;95514.25;;;23.23;48.63
46638;BME280;32365;46.938;7.390;2022-10-16T14:19:56;95510.88;;;23.40;50.22
46638;BME280;32365;46.938;7.390;2022-10-16T14:22:26;95506.13;;;23.77;48.15
46638;BME280;32365;46.938;7.390;2022-10-16T14:24:53;95511.91;;;23.97;48.62
46638;BME280;32365;46.938;7.390;2022-10-16T14:27:28;95512.25;;;24.31;45.23
46638;BME280;32365;46.938;7.390;2022-10-16T14:30:08;95514.56;;;24.06;48.15
46638;BME280;32365;46.938;7.390;2022-10-16T14:32:34;95513.72;;;23.61;48.61
46638;BME280;32365;46.938;7.390;2022-10-16T14:35:01;95517.84;;;23.04;51.13
46638;BME280;32365;46.938;7.390;2022-10-16T14:37:28;95516.72;;;23.28;51.19
46638;BME280;32365;46.938;7.390;2022-10-16T14:39:55;95517.56;;;23.46;50.28
46638;BME280;32365;46.938;7.390;2022-10-16T14:42:23;95512.88;;;23.03;50.63
46638;BME280;32365;46.938;7.390;2022-10-16T14:44:50;95525.88;;;22.90;51.65
46638;BME280;32365;46.938;7.390;2022-10-16T14:47:20;95518.91;;;22.95;51.69
46638;BME280;32365;46.938;7.390;2022-10-16T14:49:50;95518.84;;;23.17;50.21
46638;BME280;32365;46.938;7.390;2022-10-16T14:52:16;95522.22;;;23.98;48.20
46638;BME280;32365;46.938;7.390;2022-10-16T14:54:43;95516.75;;;24.12;47.65
46638;BME280;32365;46.938;7.390;2022-10-16T14:57:15;95523.72;;;23.24;47.99
46638;BME280;32365;46.938;7.390;2022-10-16T14:59:42;95522.94;;;22.60;52.79
46638;BME280;32365;46.938;7.390;2022-10-16T15:02:15;95523.97;;;22.37;54.01
46638;BME280;32365;46.938;7.390;2022-10-16T15:04:44;95528.19;;;22.60;50.45
46638;BME280;32365;46.938;7.390;2022-10-16T15:07:11;95531.50;;;22.29;54.52
46638;BME280;32365;46.938;7.390;2022-10-16T15:09:37;95527.09;;;22.62;50.66
46638;BME280;32365;46.938;7.390;2022-10-16T15:12:04;95538.31;;;22.67;51.79
46638;BME280;32365;46.938;7.390;2022-10-16T15:14:30;95537.38;;;21.90;55.30
46638;BME280;32365;46.938;7.390;2022-10-16T15:16:57;95528.84;;;21.70;55.58
46638;BME280;32365;46.938;7.390;2022-10-16T15:19:23;95531.31;;;22.03;51.68
46638;BME280;32365;46.938;7.390;2022-10-16T15:21:51;95537.09;;;21.91;55.04
46638;BME280;32365;46.938;7.390;2022-10-16T15:24:18;95529.59;;;21.71;56.97
46638;BME280;32365;46.938;7.390;2022-10-16T15:26:44;95540.72;;;21.26;59.66
46638;BME280;32365;46.938;7.390;2022-10-16T15:29:12;95544.72;;;21.23;54.49
46638;BME280;32365;46.938;7.390;2022-10-16T15:31:39;95539.06;;;21.16;56.87
46638;BME280;32365;46.938;7.390;2022-10-16T15:34:08;95542.28;;;21.13;58.21
46638;BME280;32365;46.938;7.390;2022-10-16T15:36:35;95548.00;;;21.01;61.03
46638;BME280;32365;46.938;7.390;2022-10-16T15:39:03;95547.47;;;20.52;64.33
46638;BME280;32365;46.938;7.390;2022-10-16T15:41:30;95544.00;;;20.70;61.30
46638;BME280;32365;46.938;7.390;2022-10-16T15:43:57;95545.78;;;21.08;59.69
46638;BME280;32365;46.938;7.390;2022-10-16T15:46:23;95549.94;;;20.62;61.69
46638;BME280;32365;46.938;7.390;2022-10-16T15:48:51;95544.84;;;20.33;63.40
46638;BME280;32365;46.938;7.390;2022-10-16T15:51:21;95553.16;;;20.40;64.72
46638;BME280;32365;46.938;7.390;2022-10-16T15:53:48;95554.66;;;20.27;63.54
46638;BME280;32365;46.938;7.390;2022-10-16T15:56:17;95545.06;;;20.36;63.21
46638;BME280;32365;46.938;7.390;2022-10-16T15:58:44;95556.38;;;20.37;63.67
46638;BME280;32365;46.938;7.390;2022-10-16T16:01:11;95553.94;;;20.40;64.04
46638;BME280;32365;46.938;7.390;2022-10-16T16:03:37;95560.06;;;20.36;64.56
46638;BME280;32365;46.938;7.390;2022-10-16T16:06:05;95556.63;;;20.16;65.84
46638;BME280;32365;46.938;7.390;2022-10-16T16:08:32;95562.97;;;19.96;65.39
46638;BME280;32365;46.938;7.390;2022-10-16T16:10:59;95557.50;;;19.68;66.01
46638;BME280;32365;46.938;7.390;2022-10-16T16:13:27;95566.09;;;19.49;68.38
46638;BME280;32365;46.938;7.390;2022-10-16T16:15:54;95558.22;;;19.49;66.66
46638;BME280;32365;46.938;7.390;2022-10-16T16:18:20;95571.97;;;19.41;67.07
46638;BME280;32365;46.938;7.390;2022-10-16T16:20:47;95571.97;;;19.41;66.03
46638;BME280;32365;46.938;7.390;2022-10-16T16:23:14;95568.28;;;19.42;65.92
46638;BME280;32365;46.938;7.390;2022-10-16T16:25:40;95574.22;;;18.99;67.68
46638;BME280;32365;46.938;7.390;2022-10-16T16:28:07;95567.03;;;18.75;69.24
46638;BME280;32365;46.938;7.390;2022-10-16T16:30:37;95570.59;;;18.55;70.70
46638;BME280;32365;46.938;7.390;2022-10-16T16:33:03;95579.06;;;18.42;72.73
46638;BME280;32365;46.938;7.390;2022-10-16T16:35:29;95574.31;;;18.09;73.36
46638;BME280;32365;46.938;7.390;2022-10-16T16:37:56;95580.03;;;18.11;73.49
46638;BME280;32365;46.938;7.390;2022-10-16T16:40:22;95579.97;;;17.66;76.00
46638;BME280;32365;46.938;7.390;2022-10-16T16:42:49;95583.38;;;17.67;76.29
46638;BME280;32365;46.938;7.390;2022-10-16T16:45:15;95576.84;;;17.59;76.88
46638;BME280;32365;46.938;7.390;2022-10-16T16:47:43;95590.00;;;17.44;78.32
46638;BME280;32365;46.938;7.390;2022-10-16T16:50:09;95587.91;;;17.41;78.62
46638;BME280;32365;46.938;7.390;2022-10-16T16:52:36;95587.13;;;17.30;79.08
46638;BME280;32365;46.938;7.390;2022-10-16T16:55:02;95590.28;;;17.21;78.74
46638;BME280;32365;46.938;7.390;2022-10-16T16:57:29;95595.28;;;17.18;79.90
46638;BME280;32365;46.938;7.390;2022-10-16T16:59:55;95597.13;;;17.02;79.54
46638;BME280;32365;46.938;7.390;2022-10-16T17:02:22;95595.50;;;16.90;81.61
46638;BME280;32365;46.938;7.390;2022-10-16T17:04:50;95600.50;;;16.76;81.54
46638;BME280;32365;46.938;7.390;2022-10-16T17:07:16;95603.13;;;16.82;81.83
46638;BME280;32365;46.938;7.390;2022-10-16T17:09:43;95606.22;;;16.63;81.88
46638;BME280;32365;46.938;7.390;2022-10-16T17:12:10;95616.44;;;16.65;81.57
46638;BME280;32365;46.938;7.390;2022-10-16T17:14:37;95620.09;;;16.64;81.80
46638;BME280;32365;46.938;7.390;2022-10-16T17:17:03;95626.63;;;16.66;83.09
46638;BME280;32365;46.938;7.390;2022-10-16T17:19:31;95634.66;;;16.34;83.79
46638;BME280;32365;46.938;7.390;2022-10-16T17:22:00;95639.34;;;16.31;83.22
46638;BME280;32365;46.938;7.390;2022-10-16T17:24:27;95644.56;;;16.21;83.86
46638;BME280;32365;46.938;7.390;2022-10-16T17:26:53;95654.44;;;16.09;84.09
46638;BME280;32365;46.938;7.390;2022-10-16T17:29:20;95654.19;;;16.15;83.92
46638;BME280;32365;46.938;7.390;2022-10-16T17:31:46;95655.50;;;16.13;83.56
46638;BME280;32365;46.938;7.390;2022-10-16T17:34:14;95648.00;;;16.37;83.08
46638;BME280;32365;46.938;7.390;2022-10-16T17:36:41;95651.63;;;16.26;82.72
46638;BME280;32365;46.938;7.390;2022-10-16T17:39:12;95658.41;;;16.22;82.17
46638;BME280;32365;46.938;7.390;2022-10-16T17:41:39;95657.81;;;16.04;83.75
46638;BME280;32365;46.938;7.390;2022-10-16T17:44:06;95662.03;;;16.10;84.16
46638;BME280;32365;46.938;7.390;2022-10-16T17:46:32;95667.72;;;16.02;84.20
46638;BME280;32365;46.938;7.390;2022-10-16T17:48:59;95669.78;;;16.00;84.40
46638;BME280;32365;46.938;7.390;2022-10-16T17:51:27;95671.59;;;15.94;82.59
46638;BME280;32365;46.938;7.390;2022-10-16T17:53:54;95681.97;;;15.84;83.40
46638;BME280;32365;46.938;7.390;2022-10-16T17:56:22;95676.16;;;15.72;83.43
46638;BME280;32365;46.938;7.390;2022-10-16T17:58:49;95680.50;;;15.55;84.43
46638;BME280;32365;46.938;7.390;2022-10-16T18:01:17;95684.63;;;15.46;86.14
46638;BME280;32365;46.938;7.390;2022-10-16T18:03:47;95693.69;;;15.38;86.39
46638;BME280;32365;46.938;7.390;2022-10-16T18:06:14;95696.00;;;14.97;88.35
46638;BME280;32365;46.938;7.390;2022-10-16T18:08:40;95701.06;;;14.82;89.01
46638;BME280;32365;46.938;7.390;2022-10-16T18:11:07;95705.13;;;15.00;88.53
46638;BME280;32365;46.938;7.390;2022-10-16T18:13:36;95707.34;;;15.13;87.01
46638;BME280;32365;46.938;7.390;2022-10-16T18:16:04;95711.00;;;15.17;87.92
46638;BME280;32365;46.938;7.390;2022-10-16T18:18:30;95716.69;;;15.09;87.77
46638;BME280;32365;46.938;7.390;2022-10-16T18:20:57;95719.53;;;15.07;88.67
46638;BME280;32365;46.938;7.390;2022-10-16T18:23:23;95705.81;;;14.90;88.63
46638;BME280;32365;46.938;7.390;2022-10-16T18:25:50;95712.81;;;14.62;90.05
46638;BME280;32365;46.938;7.390;2022-10-16T18:28:16;95714.38;;;14.63;89.48
46638;BME280;32365;46.938;7.390;2022-10-16T18:30:44;95721.31;;;14.74;89.84
46638;BME280;32365;46.938;7.390;2022-10-16T18:33:11;95720.50;;;14.52;90.42
46638;BME280;32365;46.938;7.390;2022-10-16T18:35:37;95723.19;;;14.57;91.35
46638;BME280;32365;46.938;7.390;2022-10-16T18:38:05;95726.69;;;14.68;90.65
46638;BME280;32365;46.938;7.390;2022-10-16T18:40:31;95717.44;;;14.55;89.83
46638;BME280;32365;46.938;7.390;2022-10-16T18:43:01;95717.88;;;14.46;90.71
46638;BME280;32365;46.938;7.390;2022-10-16T18:45:27;95719.38;;;14.42;91.24
46638;BME280;32365;46.938;7.390;2022-10-16T18:47:55;95715.41;;;14.62;91.10